Time;durP1;ratioP1;P1;durP2;ratioP2;P2;SDS_P1;SDS_P2;PMS_P1;PMS_P2;Temp;Humidity;BMP_temperature;BMP_pressure;BME280_temperature;BME280_humidity;BME280_pressure;Samples;Min_cycle;Max_cycle;Signal;HPM_P1;HPM_P2
2021/12/28 00:01:17;;;;;;;8.67;6.73;;;;;;;3.16;100.00;98911.69;5091997;28;20204;-76
2021/12/28 00:03:44;;;;;;;6.13;5.60;;;;;;;3.18;100.00;98915.72;5091580;28;20174;-76
2021/12/28 00:06:11;;;;;;;6.77;6.17;;;;;;;3.13;100.00;98894.22;5091230;28;20181;-76
2021/12/28 00:08:37;;;;;;;8.30;7.43;;;;;;;3.14;100.00;98892.31;5091396;28;20174;-76
2021/12/28 00:11:04;;;;;;;7.27;6.57;;;;;;;3.22;100.00;98889.72;5090812;28;20283;-76
2021/12/28 00:13:32;;;;;;;8.03;7.03;;;;;;;3.24;100.00;98886.72;5091200;28;20311;-76
2021/12/28 00:18:24;;;;;;;7.30;6.50;;;;;;;3.13;100.00;98877.22;5089023;28;20173;-76
2021/12/28 00:20:52;;;;;;;7.07;5.60;;;;;;;3.11;100.00;98882.13;5091352;28;20311;-76
2021/12/28 00:23:21;;;;;;;6.93;6.37;;;;;;;3.16;100.00;98890.13;5085310;28;20249;-76
2021/12/28 00:25:48;;;;;;;6.87;6.23;;;;;;;3.20;100.00;98908.13;5091242;28;20208;-77
2021/12/28 00:28:15;;;;;;;6.87;6.17;;;;;;;3.26;100.00;98914.19;5090168;28;20174;-77
2021/12/28 00:30:40;;;;;;;7.67;6.73;;;;;;;3.20;100.00;98915.41;5091383;28;20169;-76
2021/12/28 00:33:06;;;;;;;8.03;6.73;;;;;;;3.17;100.00;98916.00;5091469;28;20172;-76
2021/12/28 00:35:38;;;;;;;6.83;6.23;;;;;;;3.17;100.00;98911.41;5089871;28;20709;-76
2021/12/28 00:38:04;;;;;;;7.93;6.67;;;;;;;3.13;100.00;98906.91;5091284;28;20212;-76
2021/12/28 00:40:29;;;;;;;6.37;5.80;;;;;;;3.12;100.00;98903.41;5090942;28;20166;-76
2021/12/28 00:42:55;;;;;;;6.83;6.17;;;;;;;3.15;100.00;98905.50;5091142;28;20180;-76
2021/12/28 00:45:21;;;;;;;9.03;6.73;;;;;;;3.15;100.00;98908.19;5091448;28;20261;-76
2021/12/28 00:47:47;;;;;;;6.90;6.23;;;;;;;3.06;100.00;98901.94;5090964;28;20663;-76
2021/12/28 00:50:15;;;;;;;6.87;4.83;;;;;;;3.20;100.00;98907.31;5089794;28;20170;-78
2021/12/28 00:52:41;;;;;;;7.23;6.53;;;;;;;3.18;100.00;98909.50;5090913;28;20174;-76
2021/12/28 00:55:09;;;;;;;8.03;6.87;;;;;;;3.17;100.00;98899.81;5090904;28;20166;-76
2021/12/28 00:57:35;;;;;;;7.17;6.47;;;;;;;3.16;100.00;98896.31;5089577;28;20213;-76
2021/12/28 01:00:01;;;;;;;6.40;5.70;;;;;;;3.19;100.00;98900.34;5090926;28;20660;-76
2021/12/28 01:02:26;;;;;;;7.10;6.40;;;;;;;3.19;100.00;98897.63;5090985;28;20166;-76
2021/12/28 01:04:52;;;;;;;7.13;6.27;;;;;;;3.23;100.00;98899.41;5090743;28;20174;-76
2021/12/28 01:07:17;;;;;;;6.30;5.70;;;;;;;3.31;100.00;98902.50;5090760;28;20209;-76
2021/12/28 01:09:44;;;;;;;6.60;5.90;;;;;;;3.28;100.00;98887.72;5091002;28;20261;-77
2021/12/28 01:12:10;;;;;;;8.47;7.37;;;;;;;3.26;100.00;98898.00;5090768;28;20194;-75
2021/12/28 01:14:36;;;;;;;7.17;6.47;;;;;;;3.33;100.00;98895.72;5091095;28;20258;-76
2021/12/28 01:17:02;;;;;;;5.97;5.47;;;;;;;3.33;100.00;98892.19;5091229;28;20225;-77
2021/12/28 01:19:27;;;;;;;7.30;6.50;;;;;;;3.29;100.00;98892.81;5090695;28;20544;-77
2021/12/28 01:21:53;;;;;;;7.30;6.60;;;;;;;3.34;100.00;98894.63;5090775;28;20314;-76
2021/12/28 01:24:19;;;;;;;7.73;6.80;;;;;;;3.31;100.00;98891.69;5091617;28;20173;-76
2021/12/28 01:26:46;;;;;;;6.27;5.60;;;;;;;3.37;100.00;98893.22;5095008;28;20249;-76
2021/12/28 01:29:11;;;;;;;6.40;5.80;;;;;;;3.31;100.00;98881.69;5093510;28;20170;-76
2021/12/28 01:31:37;;;;;;;7.63;6.83;;;;;;;3.35;100.00;98885.41;5094685;28;20165;-77
2021/12/28 01:34:04;;;;;;;6.30;5.70;;;;;;;3.36;100.00;98878.91;5093658;28;20585;-76
2021/12/28 01:36:29;;;;;;;6.33;5.70;;;;;;;3.39;100.00;98881.00;5094527;28;20277;-75
2021/12/28 01:38:55;;;;;;;5.23;4.40;;;;;;;3.31;100.00;98879.00;5094611;28;20303;-77
2021/12/28 01:41:20;;;;;;;6.27;5.67;;;;;;;3.28;100.00;98883.13;5093363;28;20173;-77
2021/12/28 01:43:46;;;;;;;6.53;5.63;;;;;;;3.26;100.00;98879.13;5094669;28;20553;-77
2021/12/28 01:46:12;;;;;;;6.03;5.53;;;;;;;3.28;100.00;98887.72;5094135;28;20173;-75
2021/12/28 01:48:42;;;;;;;5.73;5.07;;;;;;;3.20;100.00;98881.13;5093512;28;20261;-76
2021/12/28 01:51:17;;;;;;;5.47;4.97;;;;;;;3.24;100.00;98881.31;5094457;28;20665;-76
2021/12/28 01:53:44;;;;;;;6.43;5.83;;;;;;;3.20;100.00;98881.13;5094324;28;20158;-76
2021/12/28 01:56:20;;;;;;;6.00;5.40;;;;;;;3.18;100.00;98875.25;5094202;28;20580;-77
2021/12/28 01:58:46;;;;;;;10.13;5.67;;;;;;;3.24;100.00;98873.22;5094241;28;20177;-76
2021/12/28 02:01:11;;;;;;;5.80;5.10;;;;;;;3.19;100.00;98882.25;5094291;28;20235;-76
2021/12/28 02:03:39;;;;;;;6.17;5.40;;;;;;;3.28;100.00;98876.91;5092903;28;20166;-76
2021/12/28 02:06:05;;;;;;;6.40;5.50;;;;;;;3.31;100.00;98872.81;5093967;28;20178;-77
2021/12/28 02:08:31;;;;;;;4.83;3.23;;;;;;;3.36;100.00;98881.63;5094430;28;20184;-77
2021/12/28 02:10:57;;;;;;;5.23;4.73;;;;;;;3.34;100.00;98880.31;5093967;28;20177;-76
2021/12/28 02:13:23;;;;;;;7.10;5.80;;;;;;;3.32;100.00;98883.28;5093918;28;20602;-76
2021/12/28 02:15:50;;;;;;;5.57;5.07;;;;;;;3.38;100.00;98871.31;5093791;28;20173;-77
2021/12/28 02:18:17;;;;;;;6.47;5.47;;;;;;;3.51;100.00;98875.88;5093851;28;20564;-77
2021/12/28 02:20:43;;;;;;;4.60;3.87;;;;;;;3.42;100.00;98885.78;5092615;28;20499;-77
2021/12/28 02:23:09;;;;;;;6.53;5.90;;;;;;;3.47;100.00;98879.47;5093698;28;20181;-76
2021/12/28 02:25:35;;;;;;;5.93;5.33;;;;;;;3.45;100.00;98876.28;5093957;28;20169;-78
2021/12/28 02:28:02;;;;;;;6.40;5.80;;;;;;;3.47;100.00;98880.31;5093728;28;20672;-77
2021/12/28 02:30:27;;;;;;;5.20;4.70;;;;;;;3.48;100.00;98884.59;5092587;28;20555;-76
2021/12/28 02:32:53;;;;;;;5.50;5.07;;;;;;;3.56;100.00;98872.28;5092478;28;20182;-78
2021/12/28 02:35:22;;;;;;;5.60;5.10;;;;;;;3.54;100.00;98853.69;5092885;28;20201;-76
2021/12/28 02:37:48;;;;;;;4.53;4.13;;;;;;;3.54;100.00;98855.59;5093500;28;20198;-76
2021/12/28 02:40:17;;;;;;;5.63;4.80;;;;;;;3.53;100.00;98852.09;5093525;28;20651;-76
2021/12/28 02:42:42;;;;;;;4.17;3.77;;;;;;;3.62;100.00;98848.66;5093517;28;20196;-76
2021/12/28 02:45:36;;;;;;;7.93;4.73;;;;;;;3.64;100.00;98838.38;5093368;28;20170;-76
2021/12/28 02:48:04;;;;;;;6.10;5.53;;;;;;;3.62;100.00;98837.84;5091771;28;20181;-76
2021/12/28 02:50:39;;;;;;;3.00;2.80;;;;;;;3.59;100.00;98834.66;5092005;28;20204;-76
2021/12/28 02:53:06;;;;;;;5.50;4.53;;;;;;;3.64;100.00;98836.47;5093321;28;20162;-77
2021/12/28 02:55:32;;;;;;;5.17;4.53;;;;;;;3.61;100.00;98834.34;5093395;28;20520;-77
2021/12/28 02:58:01;;;;;;;4.70;4.30;;;;;;;3.64;100.00;98839.16;5092962;28;20266;-76
2021/12/28 03:00:36;;;;;;;5.27;4.77;;;;;;;3.63;100.00;98834.88;5093190;28;20758;-77
2021/12/28 03:03:11;;;;;;;4.33;3.93;;;;;;;3.68;100.00;98834.75;5093192;28;20627;-77
2021/12/28 03:05:38;;;;;;;4.97;4.47;;;;;;;3.72;100.00;98832.22;5093297;28;20166;-77
2021/12/28 03:08:04;;;;;;;5.93;4.63;;;;;;;3.59;100.00;98823.84;5091694;28;20625;-76
2021/12/28 03:10:29;;;;;;;5.30;4.83;;;;;;;3.54;100.00;98818.56;5092957;28;20174;-76
2021/12/28 03:12:55;;;;;;;5.97;5.37;;;;;;;3.54;100.00;98815.88;5092925;28;20211;-75
2021/12/28 03:15:21;;;;;;;5.63;5.03;;;;;;;3.54;100.00;98810.47;5092820;28;20216;-76
2021/12/28 03:17:47;;;;;;;4.43;4.03;;;;;;;3.60;100.00;98824.66;5091425;28;20605;-77
2021/12/28 03:20:15;;;;;;;5.10;4.70;;;;;;;3.54;100.00;98823.97;5092815;28;20174;-75
2021/12/28 03:22:41;;;;;;;5.77;4.83;;;;;;;3.51;100.00;98821.09;5092689;28;20264;-76
2021/12/28 03:25:08;;;;;;;5.47;4.57;;;;;;;3.62;100.00;98827.03;5092583;28;20170;-75
2021/12/28 03:27:33;;;;;;;5.30;4.80;;;;;;;3.60;100.00;98808.44;5092702;28;20177;-76
2021/12/28 03:29:59;;;;;;;5.20;4.70;;;;;;;3.62;100.00;98808.13;5092543;28;20170;-76
2021/12/28 03:32:24;;;;;;;4.10;3.80;;;;;;;3.62;100.00;98797.34;5091299;28;20212;-75
2021/12/28 03:34:50;;;;;;;5.73;5.17;;;;;;;3.63;100.00;98796.25;5092375;28;20173;-75
2021/12/28 03:37:15;;;;;;;5.80;5.20;;;;;;;3.57;100.00;98788.25;5092347;28;20213;-76
2021/12/28 03:39:41;;;;;;;5.33;4.83;;;;;;;3.55;100.00;98785.06;5092345;28;20173;-76
2021/12/28 03:42:08;;;;;;;5.77;5.17;;;;;;;3.52;100.00;98788.38;5092448;28;20641;-76
2021/12/28 03:44:34;;;;;;;5.53;4.40;;;;;;;3.58;100.00;98779.06;5092261;28;20767;-76
2021/12/28 03:47:00;;;;;;;5.03;4.63;;;;;;;3.68;100.00;98788.03;5091095;28;20170;-77
2021/12/28 03:49:25;;;;;;;4.60;4.20;;;;;;;3.82;100.00;98791.47;5092308;28;20180;-76
2021/12/28 03:51:50;;;;;;;4.73;4.27;;;;;;;3.86;100.00;98793.25;5092149;28;20173;-76
2021/12/28 03:54:15;;;;;;;5.77;5.17;;;;;;;3.78;100.00;98782.41;5092228;28;20181;-77
2021/12/28 03:56:41;;;;;;;5.13;4.43;;;;;;;3.90;100.00;98782.59;5091996;28;20200;-76
2021/12/28 03:59:06;;;;;;;5.47;4.90;;;;;;;3.98;100.00;98771.06;5091957;28;20170;-76
2021/12/28 04:01:32;;;;;;;3.80;3.33;;;;;;;3.96;100.00;98773.28;5092086;28;20170;-76
2021/12/28 04:03:57;;;;;;;6.30;5.00;;;;;;;3.94;100.00;98762.00;5091885;28;20732;-76
2021/12/28 04:06:23;;;;;;;5.37;3.43;;;;;;;3.95;100.00;98760.88;5089889;28;20185;-77
2021/12/28 04:08:50;;;;;;;3.70;3.40;;;;;;;3.92;100.00;98766.13;5091618;28;20162;-77
2021/12/28 04:11:37;;;;;;;6.20;5.00;;;;;;;3.94;100.00;98766.59;5090410;28;20330;-76
2021/12/28 04:14:04;;;;;;;4.20;3.80;;;;;;;3.94;100.00;98759.28;5089711;28;20193;-77
2021/12/28 04:16:30;;;;;;;4.40;3.73;;;;;;;3.94;100.00;98755.81;5091487;28;20567;-76
2021/12/28 04:18:56;;;;;;;4.83;4.43;;;;;;;3.95;100.00;98763.59;5091633;28;20174;-77
2021/12/28 04:21:21;;;;;;;5.93;5.03;;;;;;;3.88;100.00;98755.91;5091479;28;20238;-77
2021/12/28 04:23:47;;;;;;;3.90;3.57;;;;;;;3.96;100.00;98750.88;5091629;28;20251;-77
2021/12/28 04:26:13;;;;;;;5.80;5.30;;;;;;;4.01;100.00;98753.44;5091519;28;20220;-77
2021/12/28 04:28:38;;;;;;;6.03;5.13;;;;;;;3.88;100.00;98749.72;5091416;28;20173;-77
2021/12/28 04:31:04;;;;;;;4.53;4.13;;;;;;;3.94;100.00;98745.00;5091351;28;20238;-77
2021/12/28 04:33:30;;;;;;;7.93;5.10;;;;;;;4.02;100.00;98755.03;5091364;28;20231;-76
2021/12/28 04:35:56;;;;;;;4.73;4.23;;;;;;;4.04;100.00;98745.50;5091585;28;20219;-78
2021/12/28 04:38:21;;;;;;;5.43;4.97;;;;;;;4.02;100.00;98738.81;5091657;28;20657;-77
2021/12/28 04:40:46;;;;;;;4.17;3.77;;;;;;;4.02;100.00;98750.44;5091237;28;20177;-77
2021/12/28 04:43:13;;;;;;;4.53;4.10;;;;;;;4.15;100.00;98744.13;5091434;28;20169;-77
2021/12/28 04:45:38;;;;;;;5.13;4.60;;;;;;;4.16;100.00;98748.44;5090990;28;20207;-77
2021/12/28 04:48:05;;;;;;;5.50;5.00;;;;;;;4.17;100.00;98758.13;5091001;28;20210;-76
2021/12/28 04:50:37;;;;;;;5.33;4.83;;;;;;;4.12;100.00;98731.25;5090979;28;20188;-77
2021/12/28 04:53:09;;;;;;;4.87;4.40;;;;;;;4.14;100.00;98736.34;5091404;28;20173;-77
2021/12/28 04:55:34;;;;;;;4.93;4.53;;;;;;;4.15;100.00;98729.81;5090975;28;20180;-77
2021/12/28 04:58:00;;;;;;;4.37;3.97;;;;;;;4.11;100.00;98735.06;5089369;28;20205;-77
2021/12/28 05:00:25;;;;;;;3.17;2.47;;;;;;;4.08;100.00;98733.00;5091102;28;20174;-76
2021/12/28 05:02:51;;;;;;;7.43;5.60;;;;;;;4.08;100.00;98724.09;5090866;28;20169;-77
2021/12/28 05:05:16;;;;;;;4.73;4.33;;;;;;;4.08;100.00;98695.16;5090758;28;20530;-77
2021/12/28 05:07:41;;;;;;;6.03;4.70;;;;;;;4.00;100.00;98679.69;5091218;28;20177;-77
2021/12/28 05:10:08;;;;;;;6.63;6.07;;;;;;;3.96;100.00;98673.31;5090900;28;20633;-77
2021/12/28 05:12:33;;;;;;;5.83;5.17;;;;;;;3.97;100.00;98666.81;5090907;28;20618;-77
2021/12/28 05:15:00;;;;;;;8.23;6.83;;;;;;;4.06;100.00;98667.66;5089364;28;20170;-77
2021/12/28 05:17:27;;;;;;;5.37;4.60;;;;;;;4.22;100.00;98656.44;5090664;28;20205;-77
2021/12/28 05:19:53;;;;;;;8.43;7.57;;;;;;;4.29;100.00;98651.34;5090757;28;20227;-77
2021/12/28 05:22:18;;;;;;;2.50;2.30;;;;;;;4.42;100.00;98651.22;5090549;28;20600;-77
2021/12/28 05:24:44;;;;;;;11.67;3.97;;;;;;;4.43;100.00;98643.91;5090618;28;20257;-77
2021/12/28 05:27:09;;;;;;;6.90;5.53;;;;;;;4.38;100.00;98634.03;5091143;28;20177;-78
2021/12/28 05:29:35;;;;;;;5.30;4.80;;;;;;;4.43;100.00;98636.59;5090754;28;20177;-77
2021/12/28 05:32:00;;;;;;;3.40;3.13;;;;;;;4.42;100.00;98642.31;5090524;28;20182;-78
2021/12/28 05:34:26;;;;;;;4.90;4.47;;;;;;;4.44;100.00;98642.78;5090624;28;20231;-77
2021/12/28 05:36:51;;;;;;;7.17;6.43;;;;;;;4.40;100.00;98644.53;5090371;28;20266;-77
2021/12/28 05:39:17;;;;;;;6.73;5.40;;;;;;;4.40;100.00;98637.22;5090639;28;20187;-77
2021/12/28 05:41:42;;;;;;;10.07;5.97;;;;;;;4.36;100.00;98651.69;5090553;28;20664;-76
2021/12/28 05:44:07;;;;;;;9.87;6.73;;;;;;;4.29;100.00;98635.91;5090928;28;20173;-76
2021/12/28 05:46:33;;;;;;;9.80;7.70;;;;;;;4.25;100.00;98629.56;5090200;28;20269;-75
2021/12/28 05:48:58;;;;;;;7.80;5.80;;;;;;;4.37;100.00;98637.06;5090987;28;20180;-75
2021/12/28 05:51:24;;;;;;;6.23;5.50;;;;;;;4.30;100.00;98625.91;5094114;28;20261;-76
2021/12/28 05:53:49;;;;;;;7.03;5.57;;;;;;;4.46;100.00;98627.03;5092405;28;20208;-75
2021/12/28 05:56:15;;;;;;;6.27;5.67;;;;;;;4.44;100.00;98621.94;5091142;28;20624;-75
2021/12/28 05:58:40;;;;;;;2.53;2.37;;;;;;;4.47;100.00;98624.03;5090362;28;20718;-75
2021/12/28 06:01:06;;;;;;;7.07;4.77;;;;;;;4.40;100.00;98625.63;5090328;28;20657;-75
2021/12/28 06:03:31;;;;;;;3.20;2.90;;;;;;;4.52;100.00;98625.00;5090405;28;20193;-76
2021/12/28 06:05:57;;;;;;;3.23;2.63;;;;;;;4.60;100.00;98624.19;5089209;28;20211;-75
2021/12/28 06:08:22;;;;;;;1.53;1.43;;;;;;;4.67;100.00;98628.03;5090342;28;20174;-76
2021/12/28 06:10:48;;;;;;;2.40;2.17;;;;;;;4.68;100.00;98632.34;5092880;28;20569;-75
2021/12/28 06:13:13;;;;;;;4.40;2.87;;;;;;;4.61;100.00;98629.28;5093928;28;20192;-75
2021/12/28 06:15:39;;;;;;;7.27;4.17;;;;;;;4.61;100.00;98618.47;5093849;28;20197;-76
2021/12/28 06:18:04;;;;;;;4.83;4.33;;;;;;;4.61;100.00;98618.47;5093909;28;20198;-75
2021/12/28 06:20:30;;;;;;;2.93;2.43;;;;;;;4.58;100.00;98619.13;5093813;28;20174;-76
2021/12/28 06:22:55;;;;;;;5.90;4.30;;;;;;;4.60;100.00;98611.47;5093833;28;20190;-75
2021/12/28 06:25:20;;;;;;;3.93;3.47;;;;;;;4.62;100.00;98613.84;5093659;28;20232;-75
2021/12/28 06:27:46;;;;;;;5.53;5.03;;;;;;;4.58;100.00;98600.19;5093775;28;20174;-75
2021/12/28 06:30:12;;;;;;;6.30;5.70;;;;;;;4.43;100.00;98595.25;5093640;28;20172;-76
2021/12/28 06:32:40;;;;;;;8.00;4.90;;;;;;;4.39;100.00;98597.00;5093686;28;20162;-76
2021/12/28 06:35:06;;;;;;;6.87;6.00;;;;;;;4.37;100.00;98596.50;5093616;28;20170;-75
2021/12/28 06:37:32;;;;;;;8.37;6.27;;;;;;;4.34;100.00;98597.94;5093381;28;20201;-76
2021/12/28 06:39:57;;;;;;;6.30;5.70;;;;;;;4.39;100.00;98600.50;5093406;28;20173;-75
2021/12/28 06:42:22;;;;;;;6.17;5.57;;;;;;;4.44;100.00;98600.31;5093423;28;20170;-75
2021/12/28 06:44:48;;;;;;;6.97;6.27;;;;;;;4.36;100.00;98608.44;5091982;28;20629;-76
2021/12/28 06:47:14;;;;;;;6.13;5.27;;;;;;;4.43;100.00;98611.47;5093107;28;20269;-76
2021/12/28 06:49:40;;;;;;;4.27;3.87;;;;;;;4.47;100.00;98613.22;5093409;28;20177;-76
2021/12/28 06:52:06;;;;;;;5.67;5.20;;;;;;;4.36;100.00;98601.13;5093296;28;20177;-76
2021/12/28 06:54:36;;;;;;;7.47;4.80;;;;;;;4.44;100.00;98604.94;5093435;28;20174;-75
2021/12/28 06:57:04;;;;;;;7.00;4.90;;;;;;;4.41;100.00;98603.66;5093256;28;20277;-76
2021/12/28 06:59:29;;;;;;;7.13;6.03;;;;;;;4.35;100.00;98599.53;5093164;28;20197;-76
2021/12/28 07:01:54;;;;;;;7.60;5.37;;;;;;;4.37;100.00;98607.31;5092996;28;20254;-76
2021/12/28 07:04:20;;;;;;;5.43;5.00;;;;;;;4.42;100.00;98612.56;5093261;28;20265;-75
2021/12/28 07:06:45;;;;;;;6.57;4.83;;;;;;;4.46;100.00;98622.44;5092841;28;20656;-76
2021/12/28 07:09:10;;;;;;;4.17;3.77;;;;;;;4.48;100.00;98612.13;5092966;28;20174;-76
2021/12/28 07:11:35;;;;;;;6.33;4.07;;;;;;;4.49;100.00;98607.50;5092939;28;20611;-76
2021/12/28 07:14:01;;;;;;;4.97;4.10;;;;;;;4.46;100.00;98616.22;5092914;28;20714;-76
2021/12/28 07:16:26;;;;;;;3.30;3.00;;;;;;;4.42;100.00;98620.69;5092657;28;20198;-76
2021/12/28 07:18:51;;;;;;;5.37;4.10;;;;;;;4.37;100.00;98616.22;5073068;28;20174;-75
2021/12/28 07:21:17;;;;;;;4.47;4.07;;;;;;;4.40;100.00;98615.59;5072330;28;20642;-75
2021/12/28 07:23:42;;;;;;;8.03;4.03;;;;;;;4.35;100.00;98618.47;5072450;28;20166;-76
2021/12/28 07:26:07;;;;;;;6.10;3.47;;;;;;;4.35;100.00;98623.88;5072322;28;20571;-76
2021/12/28 07:28:33;;;;;;;9.97;5.17;;;;;;;4.43;100.00;98625.78;5072341;28;20201;-75
2021/12/28 07:30:58;;;;;;;4.97;4.47;;;;;;;4.42;100.00;98628.78;5071519;28;20637;-77
2021/12/28 07:33:24;;;;;;;5.53;4.93;;;;;;;4.43;100.00;98631.19;5072594;28;20195;-75
2021/12/28 07:35:49;;;;;;;7.87;5.20;;;;;;;4.43;100.00;98635.78;5072265;28;20258;-74
2021/12/28 07:38:17;;;;;;;3.77;3.47;;;;;;;4.48;100.00;98636.47;5072036;28;20210;-76
2021/12/28 07:40:43;;;;;;;7.33;3.67;;;;;;;4.53;100.00;98626.59;5072551;28;20175;-75
2021/12/28 07:43:08;;;;;;;5.87;4.37;;;;;;;4.55;100.00;98630.56;5072349;28;20186;-75
2021/12/28 07:45:33;;;;;;;4.77;3.67;;;;;;;4.56;100.00;98629.47;5072294;28;20175;-75
2021/12/28 07:47:59;;;;;;;4.67;4.00;;;;;;;4.55;100.00;98619.75;5071829;28;20174;-75
2021/12/28 07:50:24;;;;;;;9.23;4.60;;;;;;;4.57;100.00;98619.44;5071915;28;20245;-74
2021/12/28 07:52:52;;;;;;;6.50;5.17;;;;;;;4.59;100.00;98611.78;5070641;28;20317;-75
2021/12/28 07:55:17;;;;;;;3.67;2.67;;;;;;;4.62;100.00;98611.94;5071792;28;20315;-75
2021/12/28 07:57:43;;;;;;;4.63;3.73;;;;;;;4.70;100.00;98613.09;5081222;28;20727;-77
2021/12/28 08:00:13;;;;;;;4.30;3.80;;;;;;;4.68;100.00;98602.59;5092030;28;20213;-76
2021/12/28 08:02:40;;;;;;;5.03;4.33;;;;;;;4.70;100.00;98618.50;5091899;28;20230;-76
2021/12/28 08:05:06;;;;;;;4.57;4.10;;;;;;;4.69;100.00;98616.91;5091859;28;20417;-77
2021/12/28 08:07:31;;;;;;;12.37;4.70;;;;;;;4.66;100.00;98612.13;5092411;28;20174;-76
2021/12/28 08:09:56;;;;;;;4.63;3.87;;;;;;;4.70;100.00;98610.38;5092430;28;20188;-77
2021/12/28 08:12:22;;;;;;;10.53;4.37;;;;;;;4.72;100.00;98621.66;5092299;28;20170;-77
2021/12/28 08:14:47;;;;;;;6.43;4.17;;;;;;;4.73;100.00;98615.94;5092071;28;20173;-76
2021/12/28 08:17:12;;;;;;;9.60;5.17;;;;;;;4.70;100.00;98604.97;5091717;28;20235;-77
2021/12/28 08:19:38;;;;;;;5.77;3.70;;;;;;;4.73;100.00;98610.53;5091643;28;20256;-76
2021/12/28 08:22:04;;;;;;;4.07;3.67;;;;;;;4.79;100.00;98608.47;5090121;28;20196;-76
2021/12/28 08:24:29;;;;;;;4.67;3.83;;;;;;;4.73;100.00;98597.00;5091419;28;20494;-77
2021/12/28 08:26:55;;;;;;;5.23;3.30;;;;;;;4.80;100.00;98603.88;5091815;28;20170;-86
2021/12/28 08:29:20;;;;;;;13.23;3.30;;;;;;;4.87;100.00;98594.16;5091749;28;20173;-79
2021/12/28 08:31:49;;;;;;;2.17;1.03;;;;;;;4.90;100.00;98585.38;5089935;28;20213;-74
2021/12/28 08:34:14;;;;;;;6.80;3.07;;;;;;;5.00;100.00;98585.06;5089661;28;20178;-74
2021/12/28 08:36:40;;;;;;;5.70;3.03;;;;;;;5.01;100.00;98578.53;5091145;28;20211;-74
2021/12/28 08:39:05;;;;;;;4.90;3.27;;;;;;;5.00;100.00;98578.84;5091351;28;20257;-74
2021/12/28 08:41:31;;;;;;;1.57;1.43;;;;;;;5.07;100.00;98582.69;5091219;28;20231;-75
2021/12/28 08:43:56;;;;;;;11.17;3.17;;;;;;;5.08;100.00;98581.56;5091245;28;20185;-74
2021/12/28 08:46:22;;;;;;;6.33;2.80;;;;;;;5.14;100.00;98584.88;5091004;28;20182;-75
2021/12/28 08:48:47;;;;;;;4.10;3.00;;;;;;;5.17;100.00;98576.13;5091138;28;20174;-75
2021/12/28 08:51:13;;;;;;;2.77;1.93;;;;;;;5.24;100.00;98579.16;5091073;28;20186;-75
2021/12/28 08:53:38;;;;;;;6.67;3.10;;;;;;;5.30;100.00;98585.16;5091166;28;20254;-75
2021/12/28 08:56:04;;;;;;;2.13;1.93;;;;;;;5.32;100.00;98589.13;5090806;28;20701;-75
2021/12/28 08:58:29;;;;;;;7.87;3.67;;;;;;;5.38;100.00;98570.81;5090841;28;20669;-75
2021/12/28 09:00:55;;;;;;;2.03;1.90;;;;;;;5.36;100.00;98581.97;5090760;28;20178;-75
2021/12/28 09:03:20;;;;;;;6.20;2.77;;;;;;;5.40;100.00;98565.88;5090948;28;20178;-75
2021/12/28 09:05:45;;;;;;;3.57;2.60;;;;;;;5.44;100.00;98564.09;5091124;28;20177;-74
2021/12/28 09:08:16;;;;;;;3.63;2.13;;;;;;;5.48;100.00;98548.00;5090870;28;20177;-75
2021/12/28 09:10:42;;;;;;;3.30;1.67;;;;;;;5.50;100.00;98554.72;5090894;28;20178;-75
2021/12/28 09:13:07;;;;;;;4.40;2.20;;;;;;;5.56;100.00;98552.59;5090813;28;20189;-74
2021/12/28 09:15:35;;;;;;;7.23;2.87;;;;;;;5.62;100.00;98551.28;5090505;28;20189;-75
2021/12/28 09:18:01;;;;;;;1.30;1.20;;;;;;;5.69;100.00;98546.19;5090690;28;20209;-74
2021/12/28 09:20:26;;;;;;;5.50;2.77;;;;;;;5.72;100.00;98540.09;5090765;28;20864;-75
2021/12/28 09:22:53;;;;;;;2.23;2.07;;;;;;;5.78;100.00;98544.22;5090671;28;20182;-75
2021/12/28 09:25:19;;;;;;;4.60;1.57;;;;;;;5.78;100.00;98552.34;5090411;28;20637;-75
2021/12/28 09:27:46;;;;;;;4.30;2.50;;;;;;;5.84;100.00;98507.69;5090675;28;20174;-75
2021/12/28 09:30:12;;;;;;;6.93;2.00;;;;;;;5.87;100.00;98560.44;5090524;28;20264;-75
2021/12/28 09:32:37;;;;;;;0.30;0.30;;;;;;;5.91;100.00;98558.69;5087209;28;20633;-75
2021/12/28 09:35:03;;;;;;;5.80;3.20;;;;;;;6.02;100.00;98554.47;5090313;28;20203;-75
2021/12/28 09:37:29;;;;;;;4.10;2.97;;;;;;;6.04;100.00;98552.22;5074373;28;20211;-75
2021/12/28 09:39:57;;;;;;;2.80;2.07;;;;;;;6.08;100.00;98552.41;5090678;28;20621;-75
2021/12/28 09:42:22;;;;;;;4.43;2.57;;;;;;;6.12;100.00;98545.19;5090787;28;20167;-75
2021/12/28 09:44:51;;;;;;;2.80;1.60;;;;;;;6.16;100.00;98544.19;5091857;28;20223;-75
2021/12/28 09:47:20;;;;;;;3.63;2.10;;;;;;;6.18;100.00;98533.81;5094305;28;20269;-75
2021/12/28 09:49:46;;;;;;;5.20;2.67;;;;;;;6.23;100.00;98535.56;5094484;28;20166;-75
2021/12/28 09:52:13;;;;;;;4.70;2.83;;;;;;;6.26;100.00;98532.19;5094393;28;20511;-74
2021/12/28 09:54:39;;;;;;;7.33;2.43;;;;;;;6.30;100.00;98530.38;5094179;28;20252;-75
2021/12/28 09:57:05;;;;;;;2.47;2.20;;;;;;;6.27;100.00;98525.63;5094194;28;20190;-75
2021/12/28 09:59:31;;;;;;;4.23;2.50;;;;;;;6.26;100.00;98524.84;5094310;28;20166;-75
2021/12/28 10:01:59;;;;;;;4.53;2.00;;;;;;;6.27;100.00;98539.19;5094119;28;20590;-75
2021/12/28 10:04:25;;;;;;;1.73;1.47;;;;;;;6.40;100.00;98529.22;5094202;28;20533;-75
2021/12/28 10:06:51;;;;;;;3.20;1.80;;;;;;;6.39;100.00;98527.63;5092732;28;20177;-74
2021/12/28 10:09:20;;;;;;;0.53;0.53;;;;;;;6.31;100.00;98520.34;5093988;28;20166;-74
2021/12/28 10:11:54;;;;;;;2.70;2.07;;;;;;;6.25;100.00;98517.03;5094136;28;20190;-74
2021/12/28 10:14:27;;;;;;;2.87;2.57;;;;;;;6.24;100.00;98515.44;5093880;28;20218;-75
2021/12/28 10:16:57;;;;;;;5.50;3.23;;;;;;;6.15;100.00;98503.84;5093768;28;20193;-75
2021/12/28 10:19:40;;;;;;;3.17;1.57;;;;;;;6.16;100.00;98498.09;5093875;28;20775;-75
2021/12/28 10:22:43;;;;;;;4.87;3.43;;;;;;;6.23;100.00;98494.88;5093819;28;20299;-75
2021/12/28 10:25:14;;;;;;;3.23;2.80;;;;;;;6.18;100.00;98503.97;5093665;28;20659;-75
2021/12/28 10:27:42;;;;;;;4.70;2.50;;;;;;;6.08;100.00;98490.84;5093725;28;20202;-75
2021/12/28 10:30:30;;;;;;;3.57;2.60;;;;;;;6.06;100.00;98494.97;5093564;28;20170;-75
2021/12/28 10:33:03;;;;;;;8.23;3.30;;;;;;;6.12;100.00;98493.69;5093596;28;20607;-75
2021/12/28 10:35:36;;;;;;;5.30;2.63;;;;;;;6.04;100.00;98491.81;5093776;28;20185;-75
2021/12/28 10:38:06;;;;;;;3.83;3.40;;;;;;;5.97;100.00;98478.78;5093531;28;20247;-75
2021/12/28 10:40:39;;;;;;;3.20;2.90;;;;;;;6.03;100.00;98482.09;5093425;28;20181;-75
2021/12/28 10:43:15;;;;;;;4.57;2.23;;;;;;;5.96;100.00;98475.28;5093155;28;20173;-75
2021/12/28 10:45:48;;;;;;;4.50;3.53;;;;;;;6.09;100.00;98481.59;5093045;28;20174;-75
2021/12/28 10:48:20;;;;;;;2.53;2.20;;;;;;;6.11;100.00;98475.81;5092475;28;20626;-75
2021/12/28 10:50:47;;;;;;;4.10;3.03;;;;;;;6.12;100.00;98475.50;5092980;28;20225;-75
2021/12/28 10:53:20;;;;;;;4.80;2.30;;;;;;;6.13;100.00;98474.38;5093016;28;20267;-75
2021/12/28 10:55:57;;;;;;;3.67;2.33;;;;;;;6.24;100.00;98469.34;5092340;28;20513;-75
2021/12/28 10:58:30;;;;;;;2.47;2.27;;;;;;;6.27;100.00;98468.69;5092708;28;20209;-75
2021/12/28 11:01:03;;;;;;;2.17;1.53;;;;;;;6.32;100.00;98454.91;5092609;28;20178;-75
2021/12/28 11:03:32;;;;;;;3.03;2.27;;;;;;;6.36;100.00;98447.69;5092844;28;20223;-74
2021/12/28 11:06:00;;;;;;;2.13;1.93;;;;;;;6.34;100.00;98441.81;5092554;28;20170;-75
2021/12/28 11:08:28;;;;;;;1.73;1.57;;;;;;;6.44;100.00;98446.84;5092672;28;20224;-75
2021/12/28 11:10:57;;;;;;;3.27;2.10;;;;;;;6.47;100.00;98431.81;5092559;28;20197;-75
2021/12/28 11:13:27;;;;;;;3.13;2.33;;;;;;;6.46;100.00;98422.88;5092446;28;20247;-75
2021/12/28 11:15:53;;;;;;;6.40;1.83;;;;;;;6.51;100.00;98430.03;5092227;28;20170;-75
2021/12/28 11:18:33;;;;;;;3.23;2.40;;;;;;;6.59;100.00;98428.34;5092594;28;20201;-75
2021/12/28 11:21:19;;;;;;;2.60;2.17;;;;;;;6.56;100.00;98413.53;5092286;28;20173;-75
2021/12/28 11:23:48;;;;;;;2.60;1.80;;;;;;;6.62;100.00;98422.25;5092272;28;20174;-74
2021/12/28 11:26:20;;;;;;;2.00;1.90;;;;;;;6.58;100.00;98416.72;5092180;28;20169;-75
2021/12/28 11:29:08;;;;;;;2.80;1.10;;;;;;;6.66;100.00;98409.63;5092195;28;20188;-75
2021/12/28 11:31:40;;;;;;;3.40;1.50;;;;;;;6.66;100.00;98396.84;5092283;28;20182;-75
2021/12/28 11:34:11;;;;;;;2.20;1.83;;;;;;;6.72;100.00;98400.91;5092166;28;20214;-75
2021/12/28 11:36:48;;;;;;;2.90;2.07;;;;;;;6.71;100.00;98403.97;5091982;28;20222;-75